Time;durP1;ratioP1;P1;durP2;ratioP2;P2;SDS_P1;SDS_P2;PMS_P1;PMS_P2;Temp;Humidity;BMP_temperature;BMP_pressure;BME280_temperature;BME280_humidity;BME280_pressure;Samples;Min_cycle;Max_cycle;Signal;HPM_P1;HPM_P2
2023/01/17 00:01:55;;;;;;;0.93;0.60;;;;;;;;;;4990557;28;20503;-78
2023/01/17 00:10:17;;;;;;;2.28;1.00;;;;;;;;;;4964507;28;20533;-78
2023/01/17 00:12:52;;;;;;;1.33;0.80;;;;;;;;;;4962091;28;20054;-78
2023/01/17 00:15:21;;;;;;;1.13;0.68;;;;;;;;;;4962528;28;20054;-78
2023/01/17 00:17:49;;;;;;;0.82;0.82;;;;;;;;;;4946046;28;20509;-77
2023/01/17 00:26:01;;;;;;;2.63;1.10;;;;;;;;;;4967081;28;20050;-79
2023/01/17 01:35:50;;;;;;;4.22;0.98;;;;;;;;;;4975369;28;20046;-78
2023/01/17 01:38:18;;;;;;;1.10;0.90;;;;;;;;;;4959951;28;20104;-78
2023/01/17 01:40:53;;;;;;;3.25;1.25;;;;;;;;;;4964176;28;20089;-78
2023/01/17 01:43:38;;;;;;;2.28;0.73;;;;;;;;;;4972039;28;20419;-77
2023/01/17 01:46:05;;;;;;;1.05;0.90;;;;;;;;;;4975009;28;20078;-77
2023/01/17 01:48:38;;;;;;;1.60;1.38;;;;;;;;;;4975282;28;20054;-78
2023/01/17 01:51:05;;;;;;;;;;;;;;;;;;4974816;28;20145;-78
2023/01/17 01:53:33;;;;;;;1.25;0.90;;;;;;;;;;4975346;28;20294;-78
2023/01/17 01:56:00;;;;;;;1.52;1.02;;;;;;;;;;4959282;28;20058;-78
2023/01/17 01:58:27;;;;;;;2.17;1.00;;;;;;;;;;4977868;28;20214;-78
2023/01/17 02:00:54;;;;;;;2.67;1.50;;;;;;;;;;4962235;28;20065;-78
2023/01/17 02:03:30;;;;;;;3.35;1.17;;;;;;;;;;4962253;28;20100;-79
2023/01/17 02:06:06;;;;;;;1.27;0.90;;;;;;;;;;4963015;28;20085;-79
2023/01/17 02:08:33;;;;;;;3.08;1.00;;;;;;;;;;4964397;28;20047;-79
2023/01/17 02:11:00;;;;;;;2.15;1.25;;;;;;;;;;4962599;28;20466;-79
2023/01/17 02:13:28;;;;;;;3.60;1.30;;;;;;;;;;4982017;28;20264;-79
2023/01/17 02:16:13;;;;;;;1.98;1.10;;;;;;;;;;4975221;28;20575;-79
2023/01/17 02:18:59;;;;;;;1.92;0.80;;;;;;;;;;4975632;28;20142;-79
2023/01/17 02:21:33;;;;;;;2.30;1.15;;;;;;;;;;4978714;28;20055;-79
2023/01/17 02:24:24;;;;;;;2.08;1.23;;;;;;;;;;4959690;28;20055;-78
2023/01/17 02:27:08;;;;;;;1.00;0.70;;;;;;;;;;4974645;28;20061;-77
2023/01/17 02:30:09;;;;;;;2.10;1.02;;;;;;;;;;4930682;28;20046;-80
2023/01/17 02:32:36;;;;;;;2.03;0.90;;;;;;;;;;4978314;28;20050;-79
2023/01/17 02:35:38;;;;;;;2.08;1.08;;;;;;;;;;4976167;28;20061;-79
2023/01/17 02:38:27;;;;;;;2.10;1.00;;;;;;;;;;4979135;28;20046;-80
2023/01/17 02:40:56;;;;;;;2.92;1.17;;;;;;;;;;4993772;28;20050;-77
2023/01/17 02:43:23;;;;;;;1.98;1.05;;;;;;;;;;4993501;28;20082;-78
2023/01/17 02:45:50;;;;;;;1.75;1.10;;;;;;;;;;4992033;28;20059;-78
2023/01/17 02:48:18;;;;;;;1.63;1.02;;;;;;;;;;4991253;28;20054;-80
2023/01/17 02:50:58;;;;;;;2.88;1.17;;;;;;;;;;4961510;28;20082;-79
2023/01/17 02:53:43;;;;;;;1.17;0.98;;;;;;;;;;4994052;28;20054;-79
2023/01/17 02:56:26;;;;;;;1.35;0.98;;;;;;;;;;4976258;28;20569;-79
2023/01/17 02:59:04;;;;;;;2.35;1.10;;;;;;;;;;4971953;28;20085;-79
2023/01/17 03:01:52;;;;;;;1.52;0.93;;;;;;;;;;4989051;28;20058;-79
2023/01/17 03:04:26;;;;;;;2.00;1.13;;;;;;;;;;4954217;28;20077;-80
2023/01/17 03:06:55;;;;;;;2.60;1.17;;;;;;;;;;4965545;28;20052;-79
2023/01/17 03:09:22;;;;;;;3.33;1.33;;;;;;;;;;4963820;28;20072;-79
2023/01/17 03:11:49;;;;;;;2.45;1.42;;;;;;;;;;4964087;28;20058;-79
2023/01/17 03:14:15;;;;;;;2.80;1.15;;;;;;;;;;4963256;28;20050;-79
2023/01/17 03:16:42;;;;;;;3.13;1.48;;;;;;;;;;4946592;28;20062;-79
2023/01/17 03:19:09;;;;;;;3.80;1.95;;;;;;;;;;4946169;28;20085;-79
2023/01/17 03:21:36;;;;;;;6.60;2.13;;;;;;;;;;4947076;28;20088;-79
2023/01/17 03:24:03;;;;;;;4.70;1.77;;;;;;;;;;4994323;28;20056;-79
2023/01/17 03:26:30;;;;;;;2.67;1.23;;;;;;;;;;4994978;28;20054;-78
2023/01/17 03:28:57;;;;;;;3.92;1.92;;;;;;;;;;4994854;28;20465;-79
2023/01/17 03:31:24;;;;;;;4.47;1.95;;;;;;;;;;4994912;28;20058;-79
2023/01/17 03:33:51;;;;;;;3.17;1.42;;;;;;;;;;4994128;28;20487;-79
2023/01/17 03:36:19;;;;;;;1.88;1.20;;;;;;;;;;4978111;28;20137;-79
2023/01/17 03:38:45;;;;;;;1.98;1.02;;;;;;;;;;4994139;28;20104;-78
2023/01/17 03:41:12;;;;;;;1.30;1.13;;;;;;;;;;4977086;28;20161;-78
2023/01/17 03:43:39;;;;;;;0.93;0.80;;;;;;;;;;4977144;28;20438;-78
2023/01/17 03:46:21;;;;;;;3.00;1.08;;;;;;;;;;4985728;28;20054;-79
2023/01/17 03:48:48;;;;;;;1.48;0.88;;;;;;;;;;4973838;28;20062;-78
2023/01/17 03:51:16;;;;;;;1.55;1.00;;;;;;;;;;4973878;28;20062;-77
2023/01/17 03:53:45;;;;;;;3.15;1.23;;;;;;;;;;4973168;28;20495;-78
2023/01/17 03:56:13;;;;;;;2.45;1.15;;;;;;;;;;4972807;28;20054;-78
2023/01/17 03:58:39;;;;;;;3.13;0.85;;;;;;;;;;4976691;28;20058;-78
2023/01/17 04:01:07;;;;;;;2.22;0.90;;;;;;;;;;4960717;28;20137;-78
2023/01/17 04:03:34;;;;;;;2.75;0.88;;;;;;;;;;4976727;28;20046;-78
2023/01/17 04:06:01;;;;;;;2.22;0.90;;;;;;;;;;4960513;28;20137;-78
2023/01/17 04:08:29;;;;;;;1.58;0.70;;;;;;;;;;4960129;28;20426;-77
2023/01/17 04:10:56;;;;;;;1.88;0.70;;;;;;;;;;4958739;28;20051;-77
2023/01/17 04:13:22;;;;;;;1.27;0.70;;;;;;;;;;4976457;28;20043;-77
2023/01/17 04:15:49;;;;;;;2.25;0.80;;;;;;;;;;4977640;28;20565;-78
2023/01/17 04:18:17;;;;;;;2.42;0.70;;;;;;;;;;4978252;28;20422;-77
2023/01/17 04:20:43;;;;;;;1.42;0.70;;;;;;;;;;4994807;28;20497;-77
2023/01/17 04:23:10;;;;;;;1.38;0.80;;;;;;;;;;4963204;28;20282;-78
2023/01/17 04:25:37;;;;;;;0.70;0.57;;;;;;;;;;4978330;28;20051;-77
2023/01/17 04:28:04;;;;;;;0.73;0.73;;;;;;;;;;4978915;28;20060;-78
2023/01/17 04:30:32;;;;;;;1.02;0.77;;;;;;;;;;4977891;28;20050;-78
2023/01/17 04:32:58;;;;;;;1.08;0.85;;;;;;;;;;4979144;28;20591;-77
2023/01/17 04:35:25;;;;;;;2.08;1.02;;;;;;;;;;4975501;28;20524;-76
2023/01/17 04:37:52;;;;;;;2.33;1.15;;;;;;;;;;4976898;28;20054;-76
2023/01/17 04:40:19;;;;;;;2.92;1.38;;;;;;;;;;4974788;28;20062;-79
2023/01/17 04:42:46;;;;;;;1.58;1.13;;;;;;;;;;4992800;28;20085;-79
2023/01/17 04:45:14;;;;;;;4.55;2.10;;;;;;;;;;4962578;28;20056;-79
2023/01/17 04:47:41;;;;;;;7.70;2.92;;;;;;;;;;4962983;28;20514;-77
2023/01/17 04:50:11;;;;;;;3.70;1.90;;;;;;;;;;4943717;28;20065;-77
2023/01/17 04:52:38;;;;;;;2.08;1.25;;;;;;;;;;4943755;28;20054;-78
2023/01/17 04:55:05;;;;;;;1.20;1.10;;;;;;;;;;4959341;28;20054;-76
2023/01/17 04:57:32;;;;;;;2.55;1.48;;;;;;;;;;4957917;28;20483;-76
2023/01/17 04:59:58;;;;;;;1.40;1.30;;;;;;;;;;4973518;28;20054;-78
2023/01/17 05:02:25;;;;;;;1.70;1.10;;;;;;;;;;4975760;28;20054;-77
2023/01/17 05:04:52;;;;;;;3.15;1.23;;;;;;;;;;4991378;28;20047;-78
2023/01/17 05:07:19;;;;;;;1.40;1.30;;;;;;;;;;4992620;28;20058;-78
2023/01/17 05:09:46;;;;;;;1.77;1.50;;;;;;;;;;4983063;28;20507;-78
2023/01/17 05:12:13;;;;;;;2.67;2.03;;;;;;;;;;4972755;28;20061;-78
2023/01/17 05:14:41;;;;;;;2.95;2.13;;;;;;;;;;4973184;28;20051;-78
2023/01/17 05:17:09;;;;;;;2.70;1.80;;;;;;;;;;4989154;28;20208;-78
2023/01/17 05:19:37;;;;;;;2.35;2.00;;;;;;;;;;4972222;28;20074;-78
2023/01/17 05:22:13;;;;;;;2.28;1.90;;;;;;;;;;4967932;28;20062;-77
2023/01/17 05:24:45;;;;;;;1.52;1.42;;;;;;;;;;4974040;28;20491;-77
2023/01/17 05:27:13;;;;;;;3.22;2.25;;;;;;;;;;4989312;28;20055;-76
2023/01/17 05:29:40;;;;;;;6.03;5.22;;;;;;;;;;4989537;28;20047;-75
2023/01/17 05:32:06;;;;;;;4.63;4.10;;;;;;;;;;4989348;28;20054;-75
2023/01/17 05:34:33;;;;;;;3.17;2.80;;;;;;;;;;4956693;28;20137;-76
2023/01/17 05:37:00;;;;;;;2.60;2.38;;;;;;;;;;4969497;28;20051;-74
2023/01/17 05:39:29;;;;;;;3.97;1.50;;;;;;;;;;4969996;28;20054;-77
2023/01/17 05:41:57;;;;;;;2.05;1.52;;;;;;;;;;4954005;28;20054;-75
2023/01/17 05:44:23;;;;;;;2.20;1.40;;;;;;;;;;4969729;28;20062;-75
2023/01/17 05:46:50;;;;;;;2.17;1.92;;;;;;;;;;4954996;28;20055;-75
2023/01/17 05:49:17;;;;;;;2.90;1.30;;;;;;;;;;4970557;28;20050;-75
2023/01/17 05:51:43;;;;;;;2.30;1.40;;;;;;;;;;4969561;28;20054;-75
2023/01/17 05:54:10;;;;;;;2.38;1.35;;;;;;;;;;4969374;28;20050;-75
2023/01/17 05:56:37;;;;;;;2.40;1.45;;;;;;;;;;4970913;28;20430;-75
2023/01/17 05:59:03;;;;;;;2.70;1.58;;;;;;;;;;4972753;28;20058;-75
2023/01/17 06:01:30;;;;;;;4.15;1.35;;;;;;;;;;4972566;28;20149;-75
2023/01/17 06:03:57;;;;;;;3.17;1.33;;;;;;;;;;4988662;28;20046;-75
2023/01/17 06:06:24;;;;;;;4.25;1.00;;;;;;;;;;4988932;28;20064;-74
2023/01/17 06:08:50;;;;;;;2.10;1.30;;;;;;;;;;4983963;28;20074;-75
2023/01/17 06:11:17;;;;;;;3.72;1.60;;;;;;;;;;4970031;28;20059;-75
2023/01/17 06:13:44;;;;;;;5.05;1.50;;;;;;;;;;4985917;28;20491;-75
2023/01/17 06:16:11;;;;;;;4.22;1.63;;;;;;;;;;4953239;28;20514;-76
2023/01/17 06:18:38;;;;;;;1.60;1.42;;;;;;;;;;4953258;28;20070;-75
2023/01/17 06:21:05;;;;;;;3.65;1.83;;;;;;;;;;4972500;28;20065;-75
2023/01/17 06:23:31;;;;;;;3.42;1.73;;;;;;;;;;4956540;28;20050;-75
2023/01/17 06:26:02;;;;;;;4.60;2.60;;;;;;;;;;4942922;28;20065;-76
2023/01/17 06:28:29;;;;;;;2.42;1.60;;;;;;;;;;4960990;28;20418;-75
2023/01/17 06:30:56;;;;;;;3.30;1.50;;;;;;;;;;4960436;28;20050;-74
2023/01/17 06:33:22;;;;;;;3.45;1.60;;;;;;;;;;4959915;28;20058;-75
2023/01/17 06:35:51;;;;;;;2.97;1.88;;;;;;;;;;4976161;28;20062;-75
2023/01/17 06:38:18;;;;;;;4.07;1.88;;;;;;;;;;4991761;28;20426;-75
2023/01/17 06:40:44;;;;;;;2.92;1.65;;;;;;;;;;4992026;28;20058;-75
2023/01/17 06:43:11;;;;;;;2.33;1.83;;;;;;;;;;4976995;28;20050;-78
2023/01/17 06:45:38;;;;;;;5.57;1.63;;;;;;;;;;4982604;28;20129;-77
2023/01/17 06:48:05;;;;;;;3.13;1.80;;;;;;;;;;4972571;28;20055;-74
2023/01/17 06:50:32;;;;;;;4.13;2.00;;;;;;;;;;4956453;28;20057;-75
2023/01/17 06:53:03;;;;;;;3.28;2.20;;;;;;;;;;4988269;28;20066;-75
2023/01/17 06:55:32;;;;;;;4.68;2.42;;;;;;;;;;4988327;28;20511;-75
2023/01/17 06:58:01;;;;;;;4.72;2.60;;;;;;;;;;4990836;28;20062;-77
2023/01/17 07:00:30;;;;;;;6.88;3.97;;;;;;;;;;4992117;28;20522;-77
2023/01/17 07:02:57;;;;;;;8.00;3.78;;;;;;;;;;4991686;28;20058;-75
2023/01/17 07:05:24;;;;;;;6.70;3.05;;;;;;;;;;4992341;28;20393;-75
2023/01/17 07:07:52;;;;;;;3.85;2.33;;;;;;;;;;4991416;28;20138;-76
2023/01/17 07:10:19;;;;;;;4.65;2.30;;;;;;;;;;4972451;28;20065;-76
2023/01/17 07:12:46;;;;;;;5.43;2.88;;;;;;;;;;4988169;28;20069;-75
2023/01/17 07:15:13;;;;;;;6.97;2.40;;;;;;;;;;4972424;28;20043;-76
2023/01/17 07:17:40;;;;;;;5.05;2.47;;;;;;;;;;4987646;28;20065;-76
2023/01/17 07:20:07;;;;;;;3.90;2.20;;;;;;;;;;4957683;28;20057;-76
2023/01/17 07:22:36;;;;;;;5.75;2.47;;;;;;;;;;4975060;28;20124;-77
2023/01/17 07:25:03;;;;;;;4.63;2.58;;;;;;;;;;4990918;28;20422;-76
2023/01/17 07:27:32;;;;;;;5.90;2.25;;;;;;;;;;4990746;28;20050;-76
2023/01/17 07:29:59;;;;;;;4.90;2.10;;;;;;;;;;4966579;28;20903;-76
2023/01/17 07:32:26;;;;;;;4.07;2.42;;;;;;;;;;4971865;28;20135;-76
2023/01/17 07:34:53;;;;;;;4.78;1.95;;;;;;;;;;4990894;28;20065;-76
2023/01/17 07:37:20;;;;;;;5.97;2.10;;;;;;;;;;4970870;28;20055;-76
2023/01/17 07:39:48;;;;;;;4.40;2.30;;;;;;;;;;4971437;28;20129;-76
2023/01/17 07:42:14;;;;;;;4.78;2.20;;;;;;;;;;4969528;28;20065;-76
2023/01/17 07:44:42;;;;;;;4.43;2.00;;;;;;;;;;4941644;28;20129;-76
2023/01/17 07:47:10;;;;;;;3.92;2.10;;;;;;;;;;4940725;28;20109;-76
2023/01/17 07:49:37;;;;;;;6.47;2.55;;;;;;;;;;4966193;28;20462;-76
2023/01/17 07:52:07;;;;;;;6.60;2.85;;;;;;;;;;4955275;28;20060;-76
2023/01/17 07:54:34;;;;;;;5.25;3.33;;;;;;;;;;4944767;28;20503;-76
2023/01/17 07:57:02;;;;;;;6.78;2.72;;;;;;;;;;4967750;28;20050;-75
2023/01/17 07:59:29;;;;;;;5.22;2.83;;;;;;;;;;4970037;28;20065;-75
2023/01/17 08:01:56;;;;;;;4.65;3.05;;;;;;;;;;4952621;28;20053;-76
2023/01/17 08:04:26;;;;;;;6.72;3.38;;;;;;;;;;4953814;28;20471;-75
2023/01/17 08:06:53;;;;;;;5.28;2.90;;;;;;;;;;4967130;28;20061;-76
2023/01/17 08:09:20;;;;;;;3.42;2.45;;;;;;;;;;4982542;28;20072;-76
2023/01/17 08:11:47;;;;;;;4.80;2.67;;;;;;;;;;4969122;28;20562;-76
2023/01/17 08:14:14;;;;;;;6.15;2.95;;;;;;;;;;4972105;28;20054;-76
2023/01/17 08:16:41;;;;;;;7.82;3.42;;;;;;;;;;4972606;28;20450;-76
2023/01/17 08:19:07;;;;;;;7.32;3.95;;;;;;;;;;4964980;28;20059;-76
2023/01/17 08:21:34;;;;;;;8.10;3.50;;;;;;;;;;4983635;28;20061;-77
2023/01/17 08:24:01;;;;;;;9.73;3.22;;;;;;;;;;4974574;28;20057;-81
2023/01/17 08:26:28;;;;;;;7.28;2.78;;;;;;;;;;4975633;28;20054;-79
2023/01/17 08:28:59;;;;;;;7.63;3.35;;;;;;;;;;4959128;28;20053;-79
2023/01/17 08:31:31;;;;;;;8.10;3.70;;;;;;;;;;4975109;28;20042;-79
2023/01/17 08:34:01;;;;;;;2.72;2.03;;;;;;;;;;4972477;28;20054;-78
2023/01/17 08:36:30;;;;;;;9.00;3.13;;;;;;;;;;5003864;28;20050;-78
2023/01/17 08:38:57;;;;;;;6.95;2.92;;;;;;;;;;4973096;28;20080;-80
2023/01/17 08:41:26;;;;;;;5.47;2.92;;;;;;;;;;4980380;28;20593;-80
2023/01/17 08:43:53;;;;;;;5.15;2.78;;;;;;;;;;5004217;28;20126;-80
2023/01/17 08:46:20;;;;;;;7.03;2.55;;;;;;;;;;4989974;28;20062;-78
2023/01/17 08:48:46;;;;;;;7.03;3.47;;;;;;;;;;4972385;28;20054;-78
2023/01/17 08:51:13;;;;;;;10.10;3.05;;;;;;;;;;4973260;28;20054;-78
2023/01/17 08:53:40;;;;;;;5.45;2.83;;;;;;;;;;4983679;28;20494;-77
2023/01/17 08:56:08;;;;;;;7.07;3.50;;;;;;;;;;4973987;28;20096;-77
2023/01/17 08:58:35;;;;;;;7.50;4.32;;;;;;;;;;4977868;28;20061;-78
2023/01/17 09:01:03;;;;;;;8.82;3.50;;;;;;;;;;4975784;28;20057;-78
2023/01/17 09:03:31;;;;;;;5.95;2.80;;;;;;;;;;4965813;28;20050;-78
2023/01/17 09:06:10;;;;;;;7.25;3.90;;;;;;;;;;4976190;28;20043;-78
2023/01/17 09:08:38;;;;;;;5.32;2.90;;;;;;;;;;4972185;28;20046;-77
2023/01/17 09:11:09;;;;;;;5.35;2.70;;;;;;;;;;4975596;28;20073;-77
2023/01/17 09:13:36;;;;;;;4.78;2.95;;;;;;;;;;4977589;28;20050;-79
2023/01/17 09:16:04;;;;;;;8.95;3.08;;;;;;;;;;4979652;28;20054;-79
2023/01/17 09:18:31;;;;;;;8.05;3.25;;;;;;;;;;4976514;28;20054;-77
2023/01/17 09:20:58;;;;;;;5.93;2.75;;;;;;;;;;4949221;28;20047;-79
2023/01/17 09:23:26;;;;;;;6.68;2.30;;;;;;;;;;4982429;28;20054;-78
2023/01/17 09:25:54;;;;;;;4.95;2.20;;;;;;;;;;4967876;28;20434;-78
2023/01/17 09:28:21;;;;;;;4.78;2.15;;;;;;;;;;4984360;28;20050;-77
2023/01/17 09:30:48;;;;;;;5.93;2.40;;;;;;;;;;4972779;28;20050;-78
2023/01/17 09:33:15;;;;;;;5.18;2.78;;;;;;;;;;4966947;28;20058;-78
2023/01/17 09:35:42;;;;;;;3.85;2.25;;;;;;;;;;4955941;28;20046;-78
2023/01/17 09:38:09;;;;;;;4.35;2.50;;;;;;;;;;4966198;28;20053;-77
2023/01/17 09:40:41;;;;;;;4.22;2.30;;;;;;;;;;4956313;28;20077;-78
2023/01/17 09:43:23;;;;;;;2.85;1.85;;;;;;;;;;4967466;28;20054;-78
2023/01/17 09:45:52;;;;;;;3.00;2.13;;;;;;;;;;4948202;28;20451;-77
2023/01/17 09:48:27;;;;;;;5.22;2.50;;;;;;;;;;4965712;28;20063;-78
2023/01/17 09:51:06;;;;;;;5.75;2.40;;;;;;;;;;4990226;28;20054;-79
2023/01/17 09:53:34;;;;;;;6.03;2.72;;;;;;;;;;4947196;28;20055;-78
2023/01/17 09:56:08;;;;;;;4.10;2.10;;;;;;;;;;4956905;28;20530;-78
2023/01/17 09:58:41;;;;;;;4.00;2.22;;;;;;;;;;4974126;28;20079;-79
2023/01/17 10:01:43;;;;;;;5.10;1.80;;;;;;;;;;4983190;28;20058;-79
2023/01/17 10:04:22;;;;;;;7.32;1.80;;;;;;;;;;4951215;28;20058;-78
2023/01/17 10:07:07;;;;;;;2.53;1.80;;;;;;;;;;4976161;28;20551;-79
2023/01/17 10:09:53;;;;;;;3.35;1.92;;;;;;;;;;4971283;28;20050;-78
2023/01/17 10:12:25;;;;;;;4.53;1.92;;;;;;;;;;4988675;28;20043;-78
2023/01/17 10:15:23;;;;;;;4.13;2.10;;;;;;;;;;4968325;28;20057;-78
2023/01/17 10:17:56;;;;;;;4.05;1.60;;;;;;;;;;4966578;28;20099;-78
2023/01/17 10:20:32;;;;;;;2.08;1.20;;;;;;;;;;4971587;28;20054;-78
2023/01/17 10:23:06;;;;;;;3.58;1.67;;;;;;;;;;4991245;28;20530;-78
2023/01/17 10:25:42;;;;;;;2.45;1.35;;;;;;;;;;4986993;28;20053;-79
2023/01/17 10:28:25;;;;;;;1.77;1.08;;;;;;;;;;4966090;28;20163;-79
2023/01/17 10:30:57;;;;;;;3.95;1.48;;;;;;;;;;4954294;28;20046;-78
2023/01/17 10:33:28;;;;;;;3.53;1.30;;;;;;;;;;4987220;28;20051;-77
2023/01/17 10:35:55;;;;;;;3.38;1.50;;;;;;;;;;4971347;28;20419;-78
2023/01/17 10:38:31;;;;;;;4.10;1.55;;;;;;;;;;4976359;28;20050;-78
2023/01/17 10:41:01;;;;;;;1.52;1.10;;;;;;;;;;4971808;28;20058;-79
2023/01/17 10:43:52;;;;;;;2.85;1.75;;;;;;;;;;4977072;28;20524;-79
2023/01/17 10:46:23;;;;;;;3.15;1.33;;;;;;;;;;4987978;28;20049;-79
2023/01/17 10:48:50;;;;;;;2.92;1.20;;;;;;;;;;4977030;28;20050;-79
2023/01/17 10:51:25;;;;;;;2.67;1.23;;;;;;;;;;4972714;28;20055;-78
2023/01/17 10:54:03;;;;;;;4.82;1.10;;;;;;;;;;4981062;28;20407;-78
2023/01/17 10:56:30;;;;;;;1.45;0.73;;;;;;;;;;4976970;28;20065;-76
2023/01/17 10:59:37;;;;;;;2.17;0.80;;;;;;;;;;4972837;28;20050;-76
2023/01/17 11:02:22;;;;;;;3.33;0.98;;;;;;;;;;4969911;28;20054;-76
2023/01/17 11:04:53;;;;;;;2.42;0.82;;;;;;;;;;4968157;28;20050;-77
2023/01/17 11:07:24;;;;;;;2.45;0.80;;;;;;;;;;4982173;28;20483;-77
2023/01/17 11:09:53;;;;;;;1.83;0.77;;;;;;;;;;4977863;28;20252;-76
2023/01/17 11:12:32;;;;;;;1.80;1.20;;;;;;;;;;4958388;28;20455;-78
2023/01/17 11:15:08;;;;;;;1.33;1.00;;;;;;;;;;4970282;28;20808;-78
2023/01/17 11:17:51;;;;;;;1.40;0.90;;;;;;;;;;4990814;28;20077;-78
2023/01/17 11:20:41;;;;;;;1.10;0.73;;;;;;;;;;4975506;28;20050;-78
2023/01/17 11:23:23;;;;;;;0.75;0.70;;;;;;;;;;4986573;28;20447;-78
2023/01/17 11:25:51;;;;;;;1.70;0.50;;;;;;;;;;4986709;28;20046;-78
2023/01/17 11:28:29;;;;;;;1.90;0.90;;;;;;;;;;4971329;28;20050;-77
2023/01/17 11:31:02;;;;;;;1.00;0.35;;;;;;;;;;4986445;28;20046;-78
2023/01/17 11:33:46;;;;;;;1.00;0.75;;;;;;;;;;4965292;28;20066;-73
2023/01/17 11:36:18;;;;;;;1.65;0.60;;;;;;;;;;4988824;28;20061;-74
2023/01/17 11:38:56;;;;;;;1.77;0.57;;;;;;;;;;4952061;28;20070;-73
2023/01/17 11:41:27;;;;;;;1.42;0.50;;;;;;;;;;4967735;28;20057;-74
2023/01/17 11:43:56;;;;;;;0.77;0.40;;;;;;;;;;4987988;28;20076;-74
2023/01/17 11:46:24;;;;;;;1.63;0.60;;;;;;;;;;4970171;28;20065;-79
2023/01/17 11:48:52;;;;;;;2.10;0.90;;;;;;;;;;4989347;28;20050;-80
2023/01/17 11:51:30;;;;;;;0.60;0.50;;;;;;;;;;4975559;28;20530;-80
2023/01/17 11:54:22;;;;;;;0.63;0.25;;;;;;;;;;4957796;28;20415;-80
2023/01/17 11:56:55;;;;;;;1.25;0.55;;;;;;;;;;4996320;28;20370;-79
2023/01/17 11:59:32;;;;;;;1.33;0.50;;;;;;;;;;4988494;28;20063;-79
2023/01/17 12:02:30;;;;;;;1.70;0.40;;;;;;;;;;4976575;28;20144;-80
2023/01/17 12:05:40;;;;;;;1.85;0.47;;;;;;;;;;4993734;28;20130;-79
2023/01/17 12:08:29;;;;;;;0.77;0.45;;;;;;;;;;4895923;29;20529;-80
2023/01/17 12:11:20;;;;;;;0.63;0.60;;;;;;;;;;4991387;28;20047;-79
2023/01/17 12:13:59;;;;;;;0.50;0.30;;;;;;;;;;4986519;28;20052;-80
2023/01/17 12:16:59;;;;;;;1.35;0.40;;;;;;;;;;4992627;28;20047;-79
2023/01/17 12:20:04;;;;;;;1.88;0.40;;;;;;;;;;4990311;28;20057;-79
2023/01/17 12:23:07;;;;;;;2.38;0.80;;;;;;;;;;4977489;28;20518;-80
2023/01/17 12:25:44;;;;;;;2.50;1.23;;;;;;;;;;4970746;28;20088;-80
2023/01/17 12:28:45;;;;;;;0.85;0.30;;;;;;;;;;4965852;28;20550;-78
2023/01/17 12:32:14;;;;;;;0.68;0.43;;;;;;;;;;4990699;28;20055;-81
2023/01/17 12:35:01;;;;;;;1.02;0.30;;;;;;;;;;4960138;28;20064;-80
2023/01/17 12:37:36;;;;;;;1.92;0.60;;;;;;;;;;4986114;28;20058;-80
2023/01/17 12:40:16;;;;;;;0.98;0.30;;;;;;;;;;4986899;28;20523;-80
2023/01/17 12:42:46;;;;;;;1.80;0.40;;;;;;;;;;4989489;28;20077;-80
2023/01/17 12:45:25;;;;;;;1.58;0.50;;;;;;;;;;4975269;28;20426;-80
2023/01/17 12:47:57;;;;;;;2.17;0.50;;;;;;;;;;4969150;28;20054;-80
2023/01/17 12:50:38;;;;;;;1.05;0.55;;;;;;;;;;4992304;28;20426;-80
2023/01/17 12:53:23;;;;;;;1.00;0.60;;;;;;;;;;4981208;28;20061;-80
2023/01/17 12:56:23;;;;;;;1.90;0.50;;;;;;;;;;4986422;28;20053;-80
2023/01/17 12:59:21;;;;;;;3.85;0.68;;;;;;;;;;4966487;28;20507;-80
2023/01/17 13:01:56;;;;;;;0.95;0.60;;;;;;;;;;4988202;28;20057;-80
2023/01/17 13:04:39;;;;;;;1.48;0.40;;;;;;;;;;4975533;28;20046;-80
2023/01/17 13:07:29;;;;;;;2.53;0.55;;;;;;;;;;4964631;28;20053;-80
2023/01/17 13:10:31;;;;;;;1.90;0.60;;;;;;;;;;4975562;28;20061;-80
2023/01/17 13:13:01;;;;;;;2.10;0.60;;;;;;;;;;4968105;28;20431;-80
2023/01/17 13:15:36;;;;;;;0.52;0.38;;;;;;;;;;4968420;28;20043;-80
2023/01/17 13:18:09;;;;;;;0.98;0.55;;;;;;;;;;4974840;28;20085;-80
2023/01/17 13:20:47;;;;;;;1.35;0.73;;;;;;;;;;4959931;28;20055;-82
2023/01/17 13:23:36;;;;;;;0.50;0.40;;;;;;;;;;4978531;28;20054;-82
2023/01/17 13:26:03;;;;;;;1.00;0.45;;;;;;;;;;4962732;28;20050;-82
2023/01/17 13:28:42;;;;;;;1.15;0.30;;;;;;;;;;4986865;28;20082;-80
2023/01/17 13:31:31;;;;;;;1.13;0.63;;;;;;;;;;5000738;28;20050;-81
2023/01/17 13:34:15;;;;;;;3.08;0.65;;;;;;;;;;4988123;28;20058;-82
2023/01/17 13:37:15;;;;;;;1.48;0.60;;;;;;;;;;5005294;28;20038;-82
2023/01/17 13:39:48;;;;;;;1.58;0.50;;;;;;;;;;4997829;28;20053;-82
2023/01/17 13:42:33;;;;;;;;;;;;;;;;;;5020473;28;20159;-83
2023/01/17 13:45:08;;;;;;;0.80;0.52;;;;;;;;;;5031227;28;19957;-82
2023/01/17 13:47:37;;;;;;;3.15;0.60;;;;;;;;;;5015307;28;20215;-82
2023/01/17 13:50:12;;;;;;;2.88;0.75;;;;;;;;;;5006551;28;20061;-83
2023/01/17 13:52:39;;;;;;;1.15;0.70;;;;;;;;;;4970569;28;20158;-82
2023/01/17 13:55:06;;;;;;;2.63;0.90;;;;;;;;;;4970600;28;20064;-83
2023/01/17 13:57:40;;;;;;;3.17;0.85;;;;;;;;;;4985481;28;20499;-84
2023/01/17 14:00:20;;;;;;;4.63;0.98;;;;;;;;;;4987298;28;20104;-82
2023/01/17 14:02:48;;;;;;;1.85;0.90;;;;;;;;;;5018212;28;20049;-82
2023/01/17 14:05:22;;;;;;;1.83;0.70;;;;;;;;;;4977185;28;20475;-82
2023/01/17 14:07:57;;;;;;;2.95;1.20;;;;;;;;;;4983317;28;20041;-83
2023/01/17 14:10:40;;;;;;;3.63;1.30;;;;;;;;;;4982263;28;20064;-82
2023/01/17 14:13:30;;;;;;;3.95;1.67;;;;;;;;;;5000179;28;20057;-82
2023/01/17 14:15:57;;;;;;;3.42;0.95;;;;;;;;;;5000368;28;20042;-82
2023/01/17 14:18:36;;;;;;;4.75;1.25;;;;;;;;;;4968941;28;20395;-82
2023/01/17 14:21:23;;;;;;;2.15;1.00;;;;;;;;;;5001741;28;20061;-82
2023/01/17 14:24:16;;;;;;;3.40;1.38;;;;;;;;;;4965774;28;20078;-82
2023/01/17 14:26:54;;;;;;;2.70;1.10;;;;;;;;;;4979646;28;20042;-83
2023/01/17 14:29:52;;;;;;;5.30;1.42;;;;;;;;;;5000046;28;20082;-80
2023/01/17 14:32:21;;;;;;;2.67;1.45;;;;;;;;;;5000672;28;20037;-80
2023/01/17 14:34:49;;;;;;;3.22;1.13;;;;;;;;;;4995695;28;20054;-80
2023/01/17 14:37:26;;;;;;;5.43;1.50;;;;;;;;;;4983886;28;20050;-80
2023/01/17 14:39:52;;;;;;;2.15;1.30;;;;;;;;;;4999126;28;20502;-80
2023/01/17 14:42:21;;;;;;;3.25;1.13;;;;;;;;;;4981819;28;20049;-81
2023/01/17 14:44:51;;;;;;;1.88;1.25;;;;;;;;;;4982969;28;20054;-81
2023/01/17 14:47:18;;;;;;;2.15;1.10;;;;;;;;;;4963812;28;20521;-80
2023/01/17 14:49:45;;;;;;;4.53;1.58;;;;;;;;;;4979519;28;20050;-79
2023/01/17 14:52:16;;;;;;;3.10;1.63;;;;;;;;;;4980630;28;20050;-80
2023/01/17 14:54:50;;;;;;;6.25;2.13;;;;;;;;;;4962766;28;20400;-80
2023/01/17 14:57:27;;;;;;;5.38;1.80;;;;;;;;;;4966304;28;20057;-80
2023/01/17 15:00:19;;;;;;;4.43;1.85;;;;;;;;;;4970462;28;20119;-80
2023/01/17 15:02:47;;;;;;;3.83;1.85;;;;;;;;;;5000209;28;20385;-80
2023/01/17 15:05:15;;;;;;;4.55;1.65;;;;;;;;;;4963779;28;20056;-79
2023/01/17 15:07:43;;;;;;;4.38;2.45;;;;;;;;;;4982583;28;20070;-80
2023/01/17 15:10:14;;;;;;;5.13;1.77;;;;;;;;;;4962490;28;20457;-80
2023/01/17 15:12:45;;;;;;;5.85;2.10;;;;;;;;;;4962823;28;20050;-80
2023/01/17 15:15:34;;;;;;;4.57;2.08;;;;;;;;;;4980069;28;20132;-80
2023/01/17 15:18:12;;;;;;;5.80;1.92;;;;;;;;;;4979579;28;20137;-80
2023/01/17 15:20:49;;;;;;;6.05;1.95;;;;;;;;;;4995666;28;20769;-80
2023/01/17 15:23:18;;;;;;;5.90;1.90;;;;;;;;;;4986500;28;20065;-81
2023/01/17 15:25:49;;;;;;;5.28;1.90;;;;;;;;;;4979174;28;20057;-80
2023/01/17 15:28:15;;;;;;;4.70;2.03;;;;;;;;;;4961865;28;20049;-80
2023/01/17 15:31:20;;;;;;;7.22;2.63;;;;;;;;;;4980396;28;20053;-80
2023/01/17 15:33:50;;;;;;;5.88;2.28;;;;;;;;;;4981642;28;20046;-81
2023/01/17 15:36:20;;;;;;;5.88;2.67;;;;;;;;;;4980744;28;20053;-80
2023/01/17 15:38:58;;;;;;;5.28;2.45;;;;;;;;;;5012793;28;20046;-80
2023/01/17 15:41:33;;;;;;;5.57;2.47;;;;;;;;;;4994172;28;20061;-79
2023/01/17 15:44:00;;;;;;;5.75;2.65;;;;;;;;;;5011718;28;20129;-80
2023/01/17 15:46:31;;;;;;;6.20;2.78;;;;;;;;;;4996231;28;20050;-80
2023/01/17 15:49:20;;;;;;;5.93;2.72;;;;;;;;;;4997706;28;20054;-79
2023/01/17 15:51:54;;;;;;;5.85;2.85;;;;;;;;;;4998858;28;20056;-79
2023/01/17 15:54:27;;;;;;;7.20;2.63;;;;;;;;;;5022501;28;20053;-79
2023/01/17 15:57:13;;;;;;;7.75;2.60;;;;;;;;;;5013119;28;20054;-77
2023/01/17 15:59:44;;;;;;;7.80;3.30;;;;;;;;;;4976110;28;20042;-80
2023/01/17 16:02:23;;;;;;;5.72;3.05;;;;;;;;;;5017372;28;20057;-79
2023/01/17 16:04:50;;;;;;;9.73;2.95;;;;;;;;;;5013290;28;20045;-79
2023/01/17 16:07:19;;;;;;;7.55;2.67;;;;;;;;;;4986159;28;20053;-81
2023/01/17 16:09:46;;;;;;;5.85;3.40;;;;;;;;;;4979337;28;20104;-81
2023/01/17 16:12:13;;;;;;;6.95;3.25;;;;;;;;;;4988087;28;20061;-81
2023/01/17 16:14:40;;;;;;;6.50;3.38;;;;;;;;;;4962361;28;20062;-81
2023/01/17 16:17:27;;;;;;;7.15;3.67;;;;;;;;;;4993494;28;20092;-80
2023/01/17 16:19:54;;;;;;;9.98;4.10;;;;;;;;;;4981169;28;20045;-80
2023/01/17 16:22:21;;;;;;;9.05;4.53;;;;;;;;;;4963464;28;20069;-80
2023/01/17 16:24:49;;;;;;;10.57;4.00;;;;;;;;;;4982463;28;20056;-80
2023/01/17 16:27:16;;;;;;;8.32;3.25;;;;;;;;;;4998152;28;20061;-80
2023/01/17 16:29:43;;;;;;;8.13;3.78;;;;;;;;;;4980300;28;20136;-81
2023/01/17 16:32:10;;;;;;;7.25;3.63;;;;;;;;;;4987951;28;20058;-80
2023/01/17 16:34:37;;;;;;;4.90;2.70;;;;;;;;;;4974489;28;20053;-79
2023/01/17 16:37:04;;;;;;;7.20;3.10;;;;;;;;;;4972857;28;20877;-79